createdAt,value
2017-09-24T00:00:17.471Z,17.97
2017-09-24T00:02:45.814Z,17.60
2017-09-24T00:05:15.130Z,17.87
2017-09-24T00:07:44.243Z,14.87
2017-09-24T00:10:13.313Z,16.00
2017-09-24T00:12:42.434Z,15.93
2017-09-24T00:15:10.747Z,14.47
2017-09-24T00:17:39.048Z,16.70
2017-09-24T00:20:08.260Z,14.60
2017-09-24T00:22:37.348Z,15.80
2017-09-24T00:25:06.476Z,14.80
2017-09-24T00:27:34.795Z,12.60
2017-09-24T00:30:03.125Z,14.53
2017-09-24T00:32:31.481Z,14.57
2017-09-24T00:34:59.782Z,15.33
2017-09-24T00:37:28.848Z,16.50
2017-09-24T00:39:57.196Z,13.80
2017-09-24T00:42:25.499Z,16.20
2017-09-24T00:44:53.807Z,14.90
2017-09-24T00:47:22.887Z,13.60
2017-09-24T00:49:51.980Z,14.90
2017-09-24T00:52:20.292Z,14.97
2017-09-24T00:54:48.659Z,16.37
2017-09-24T00:57:16.974Z,14.40
2017-09-24T00:59:45.298Z,14.73
2017-09-24T01:02:13.639Z,17.23
2017-09-24T01:04:42.015Z,16.13
2017-09-24T01:07:10.310Z,18.60
2017-09-24T01:09:38.645Z,17.73
2017-09-24T01:12:06.966Z,21.13
2017-09-24T01:14:35.256Z,20.17
2017-09-24T01:17:03.592Z,19.93
2017-09-24T01:19:31.949Z,20.80
2017-09-24T01:22:00.242Z,24.07
2017-09-24T01:24:28.562Z,21.53
2017-09-24T01:26:56.916Z,23.13
2017-09-24T01:29:25.240Z,22.00
2017-09-24T01:31:53.575Z,19.23
2017-09-24T01:34:22.653Z,20.87
2017-09-24T01:36:50.964Z,18.77
2017-09-24T01:39:20.069Z,17.77
2017-09-24T01:41:48.418Z,21.13
2017-09-24T01:44:16.815Z,20.07
2017-09-24T01:46:45.884Z,18.90
2017-09-24T01:49:14.240Z,19.47
2017-09-24T01:51:42.533Z,21.00
2017-09-24T01:54:10.845Z,18.20
2017-09-24T01:56:39.176Z,18.80
2017-09-24T01:59:07.529Z,18.63
2017-09-24T02:01:35.818Z,20.93
2017-09-24T02:04:04.125Z,22.07
2017-09-24T02:06:33.251Z,20.30
2017-09-24T02:09:02.305Z,17.33
2017-09-24T02:11:30.605Z,19.57
2017-09-24T02:13:59.726Z,17.17
2017-09-24T02:16:28.073Z,17.30
2017-09-24T02:18:56.395Z,20.03
2017-09-24T02:21:24.723Z,18.70
2017-09-24T02:23:53.850Z,18.43
2017-09-24T02:26:22.151Z,19.13
2017-09-24T02:28:50.467Z,18.60
2017-09-24T02:31:18.820Z,19.50
2017-09-24T02:33:47.143Z,17.87
2017-09-24T02:36:15.454Z,18.40
2017-09-24T02:38:43.791Z,17.50
2017-09-24T02:41:12.130Z,18.40
2017-09-24T02:43:40.435Z,18.90
2017-09-24T02:46:08.731Z,18.23
2017-09-24T02:48:37.074Z,20.20
2017-09-24T02:51:06.204Z,17.70
2017-09-24T02:53:34.546Z,17.77
2017-09-24T02:56:03.668Z,20.47
2017-09-24T02:58:32.790Z,17.80
2017-09-24T03:01:01.100Z,19.00
2017-09-24T03:03:29.416Z,17.57
2017-09-24T03:05:57.754Z,21.17
2017-09-24T03:08:26.912Z,19.03
2017-09-24T03:10:55.238Z,18.47
2017-09-24T03:13:24.375Z,20.90
2017-09-24T03:15:52.741Z,19.07
2017-09-24T03:18:21.070Z,20.60
2017-09-24T03:20:49.395Z,18.60
2017-09-24T03:23:17.771Z,17.73
2017-09-24T03:25:46.115Z,19.30
2017-09-24T03:28:15.239Z,18.57
2017-09-24T03:30:43.566Z,21.17
2017-09-24T03:33:11.910Z,19.50
2017-09-24T03:35:40.276Z,18.00
2017-09-24T03:38:08.632Z,18.17
2017-09-24T03:40:37.018Z,20.90
2017-09-24T03:43:05.349Z,18.07
2017-09-24T03:45:33.704Z,19.30
2017-09-24T03:48:02.010Z,16.57
2017-09-24T03:50:30.339Z,18.90
2017-09-24T03:52:58.714Z,18.10
2017-09-24T03:55:27.046Z,17.87
2017-09-24T03:57:55.363Z,18.63
2017-09-24T04:00:23.694Z,17.43
2017-09-24T04:02:52.016Z,18.67
2017-09-24T04:05:20.345Z,20.40
2017-09-24T04:07:48.684Z,18.73
2017-09-24T04:10:17.012Z,19.87
2017-09-24T04:12:45.350Z,19.13
2017-09-24T04:15:13.677Z,18.50
2017-09-24T04:17:42.798Z,18.27
2017-09-24T04:20:11.169Z,21.47
2017-09-24T04:22:39.581Z,21.10
2017-09-24T04:25:07.927Z,18.80
2017-09-24T04:27:37.003Z,20.40
2017-09-24T04:30:05.345Z,19.70
2017-09-24T04:32:33.650Z,20.67
2017-09-24T04:35:02.780Z,17.47
2017-09-24T04:37:31.152Z,18.97
2017-09-24T04:39:59.755Z,20.80
2017-09-24T04:42:28.816Z,19.10
2017-09-24T04:44:57.147Z,18.40
2017-09-24T04:47:25.442Z,20.07
2017-09-24T04:49:53.868Z,18.03
2017-09-24T04:52:22.227Z,19.13
2017-09-24T04:54:51.654Z,20.63
2017-09-24T04:57:19.964Z,20.33
2017-09-24T04:59:48.411Z,21.47
2017-09-24T05:02:16.719Z,23.33
2017-09-24T05:04:45.083Z,19.63
2017-09-24T05:07:13.422Z,17.80
2017-09-24T05:09:42.501Z,19.47
2017-09-24T05:12:10.848Z,18.47
2017-09-24T05:14:39.162Z,17.30
2017-09-24T05:17:07.554Z,18.67
2017-09-24T05:19:35.941Z,17.27
2017-09-24T05:22:05.041Z,17.10
2017-09-24T05:24:33.386Z,18.03
2017-09-24T05:27:02.728Z,15.80
2017-09-24T05:29:31.082Z,18.60
2017-09-24T05:31:59.466Z,17.13
2017-09-24T05:34:28.539Z,17.20
2017-09-24T05:36:57.756Z,17.13
2017-09-24T05:39:26.112Z,18.77
2017-09-24T05:41:55.343Z,19.40
2017-09-24T05:44:23.663Z,16.90
2017-09-24T05:46:52.001Z,19.20
2017-09-24T06:02:26.838Z,17.83
2017-09-24T06:04:55.166Z,20.90
2017-09-24T06:07:23.458Z,21.37
2017-09-24T06:09:51.799Z,19.03
2017-09-24T06:12:20.142Z,19.50
2017-09-24T06:14:48.590Z,20.10
2017-09-24T06:17:16.890Z,19.40
2017-09-24T06:19:45.238Z,19.17
2017-09-24T06:22:14.342Z,20.23
2017-09-24T06:24:43.393Z,20.30
2017-09-24T06:27:11.723Z,19.43
2017-09-24T06:29:40.012Z,19.40
2017-09-24T06:32:08.294Z,17.97
2017-09-24T06:34:36.664Z,17.27
2017-09-24T06:37:04.979Z,19.77
2017-09-24T06:39:33.291Z,19.87
2017-09-24T06:42:01.667Z,16.60
2017-09-24T06:44:30.040Z,18.87
2017-09-24T06:46:59.394Z,20.10
2017-09-24T06:49:27.690Z,18.37
2017-09-24T06:51:56.054Z,20.30
2017-09-24T06:54:24.473Z,19.70
2017-09-24T06:56:53.680Z,18.90
2017-09-24T06:59:22.858Z,18.40
2017-09-24T07:01:51.943Z,19.00
2017-09-24T07:04:21.063Z,19.60
2017-09-24T07:06:49.391Z,18.57
2017-09-24T07:09:17.722Z,19.03
2017-09-24T07:11:46.070Z,19.17
2017-09-24T07:14:14.383Z,19.87
2017-09-24T07:16:42.690Z,19.83
2017-09-24T07:19:11.024Z,19.90
2017-09-24T07:21:39.348Z,18.47
2017-09-24T07:24:07.691Z,22.20
2017-09-24T07:26:36.010Z,21.07
2017-09-24T07:29:04.299Z,21.73
2017-09-24T07:31:32.650Z,22.10
2017-09-24T07:34:00.949Z,22.70
2017-09-24T07:36:29.252Z,23.67
2017-09-24T07:38:58.360Z,24.93
2017-09-24T07:41:26.684Z,22.97
2017-09-24T07:43:54.981Z,23.50
2017-09-24T07:46:23.333Z,22.77
2017-09-24T07:48:51.667Z,24.03
2017-09-24T07:51:20.003Z,24.67
2017-09-24T07:53:49.830Z,25.23
2017-09-24T07:56:18.155Z,24.30
2017-09-24T07:58:46.527Z,24.50
2017-09-24T08:01:14.841Z,26.57
2017-09-24T08:03:43.199Z,24.30
2017-09-24T08:06:11.482Z,26.43
2017-09-24T08:08:40.242Z,27.73
2017-09-24T08:11:08.576Z,24.83
2017-09-24T08:13:37.662Z,26.57
2017-09-24T08:16:06.010Z,25.90
2017-09-24T08:18:34.354Z,26.23
2017-09-24T08:21:02.702Z,26.17
2017-09-24T08:23:31.043Z,26.20
2017-09-24T08:25:59.342Z,22.90
2017-09-24T08:28:27.659Z,26.20
2017-09-24T08:30:55.999Z,26.30
2017-09-24T08:33:24.311Z,26.67
2017-09-24T08:35:52.670Z,24.03
2017-09-24T08:38:21.870Z,24.50
2017-09-24T08:40:50.202Z,24.50
2017-09-24T08:43:18.631Z,24.10
2017-09-24T08:45:47.707Z,22.73
2017-09-24T08:48:16.050Z,23.50
2017-09-24T08:50:44.382Z,21.00
2017-09-24T08:53:13.438Z,19.60
2017-09-24T08:55:41.747Z,22.37
2017-09-24T08:58:10.096Z,20.60
2017-09-24T09:00:38.443Z,19.07
2017-09-24T09:03:06.819Z,20.20
2017-09-24T09:05:35.147Z,19.03
2017-09-24T09:08:03.451Z,22.23
2017-09-24T09:10:31.821Z,19.40
2017-09-24T09:13:00.896Z,19.43
2017-09-24T09:15:29.199Z,20.87
2017-09-24T09:17:57.549Z,21.00
2017-09-24T09:20:25.893Z,16.83
2017-09-24T09:22:54.192Z,20.63
2017-09-24T09:25:22.506Z,20.90
2017-09-24T09:27:51.615Z,20.83
2017-09-24T09:30:19.922Z,21.20
2017-09-24T09:32:48.255Z,21.20
2017-09-24T09:35:16.690Z,22.50
2017-09-24T09:37:45.017Z,17.77
2017-09-24T09:40:13.331Z,18.67
2017-09-24T09:42:41.657Z,20.00
2017-09-24T09:45:18.693Z,18.77
2017-09-24T09:47:47.112Z,19.87
2017-09-24T09:50:16.189Z,16.60
2017-09-24T09:52:44.569Z,18.33
2017-09-24T09:55:12.875Z,18.13
2017-09-24T09:57:41.211Z,17.93
2017-09-24T10:00:09.515Z,13.83
2017-09-24T10:02:37.837Z,17.60
2017-09-24T10:05:06.119Z,17.03
2017-09-24T10:21:08.435Z,15.40
2017-09-24T10:23:36.741Z,17.90
2017-09-24T10:26:05.090Z,17.20
2017-09-24T10:28:46.178Z,16.87
2017-09-24T10:31:26.491Z,15.97
2017-09-24T10:33:55.585Z,15.10
2017-09-24T10:36:23.906Z,15.77
2017-09-24T10:38:52.207Z,16.13
2017-09-24T10:41:20.546Z,18.13
2017-09-24T10:43:49.755Z,19.20
2017-09-24T10:46:18.100Z,18.20
2017-09-24T10:48:47.187Z,17.37
2017-09-24T10:51:15.803Z,17.63
2017-09-24T10:53:44.131Z,16.27
2017-09-24T10:56:12.442Z,15.90
2017-09-24T10:58:41.553Z,17.63
2017-09-24T11:01:10.615Z,15.40
2017-09-24T11:03:39.729Z,20.10
2017-09-24T11:06:08.178Z,15.07
2017-09-24T11:08:36.517Z,16.60
2017-09-24T11:11:04.810Z,16.33
2017-09-24T11:13:33.246Z,15.53
2017-09-24T11:16:01.581Z,22.97
2017-09-24T11:18:29.871Z,15.50
2017-09-24T11:20:59.024Z,13.77
2017-09-24T11:23:27.328Z,12.83
2017-09-24T11:25:56.415Z,12.90
2017-09-24T11:28:24.735Z,10.30
2017-09-24T11:30:53.931Z,10.93
2017-09-24T11:33:22.998Z,9.10
2017-09-24T11:35:51.315Z,10.23
2017-09-24T11:38:19.661Z,10.07
2017-09-24T11:40:47.938Z,9.73
2017-09-24T11:43:16.256Z,10.20
2017-09-24T11:45:45.307Z,13.03
2017-09-24T11:48:13.639Z,39.70
2017-09-24T11:50:41.928Z,14.37
2017-09-24T11:53:10.275Z,23.83
2017-09-24T11:55:38.598Z,10.03
2017-09-24T11:58:07.063Z,11.17
2017-09-24T12:00:35.367Z,12.40
2017-09-24T12:03:03.674Z,9.80
2017-09-24T12:05:32.023Z,8.73
2017-09-24T12:08:00.313Z,10.03
2017-09-24T12:10:29.627Z,9.00
2017-09-24T12:12:58.827Z,9.30
2017-09-24T12:15:27.138Z,8.90
2017-09-24T12:17:55.439Z,11.93
2017-09-24T12:20:24.546Z,10.20
2017-09-24T12:22:53.632Z,9.87
2017-09-24T12:25:21.947Z,9.33
2017-09-24T12:27:51.016Z,8.20
2017-09-24T12:30:19.363Z,8.33
2017-09-24T12:32:47.682Z,8.50
2017-09-24T12:35:16.031Z,10.30
2017-09-24T12:37:44.449Z,9.27
2017-09-24T12:40:13.651Z,9.60
2017-09-24T12:42:41.976Z,8.87
2017-09-24T12:45:10.359Z,9.63
2017-09-24T12:47:38.689Z,10.03
2017-09-24T12:50:07.003Z,9.50
2017-09-24T12:52:35.327Z,10.03
2017-09-24T12:55:03.657Z,9.27
2017-09-24T12:57:31.998Z,10.27
2017-09-24T13:00:00.309Z,9.60
2017-09-24T13:02:29.407Z,9.70
2017-09-24T13:04:57.710Z,9.97
2017-09-24T13:07:26.029Z,8.93
2017-09-24T13:09:54.339Z,8.77
2017-09-24T13:12:22.800Z,8.80
2017-09-24T13:14:51.130Z,8.50
2017-09-24T13:17:20.215Z,9.23
2017-09-24T13:19:48.543Z,9.70
2017-09-24T13:22:16.856Z,8.77
2017-09-24T13:24:45.190Z,8.57
2017-09-24T13:27:13.471Z,9.40
2017-09-24T13:29:41.919Z,10.50
2017-09-24T13:32:10.989Z,9.07
2017-09-24T13:34:39.287Z,9.43
2017-09-24T13:37:07.645Z,10.87
2017-09-24T13:39:35.955Z,14.63
2017-09-24T13:42:04.632Z,10.67
2017-09-24T13:44:32.954Z,9.03
2017-09-24T13:47:01.265Z,8.87
2017-09-24T13:49:29.597Z,10.43
2017-09-24T13:51:57.896Z,9.30
2017-09-24T13:54:26.218Z,9.13
2017-09-24T13:56:54.535Z,10.40
2017-09-24T13:59:22.859Z,15.57
2017-09-24T14:01:51.942Z,12.60
2017-09-24T14:04:21.052Z,16.20
2017-09-24T14:06:50.127Z,10.03
2017-09-24T14:09:19.225Z,9.77
2017-09-24T14:11:47.525Z,8.80
2017-09-24T14:14:15.846Z,9.03
2017-09-24T14:16:44.174Z,8.53
2017-09-24T14:19:12.530Z,12.57
2017-09-24T14:21:40.828Z,9.47
2017-09-24T14:24:09.903Z,7.80
2017-09-24T14:26:38.195Z,10.10
2017-09-24T14:29:07.290Z,10.13
2017-09-24T14:31:36.387Z,10.97
2017-09-24T14:34:04.720Z,9.93
2017-09-24T14:36:33.034Z,10.47
2017-09-24T14:39:01.362Z,15.97
2017-09-24T14:41:31.221Z,11.73
2017-09-24T14:44:00.315Z,11.43
2017-09-24T14:46:29.453Z,8.20
2017-09-24T14:48:57.773Z,10.80
2017-09-24T14:51:26.098Z,8.33
2017-09-24T14:53:54.415Z,10.10
2017-09-24T14:56:22.732Z,10.10
2017-09-24T14:58:51.795Z,8.67
2017-09-24T15:01:20.899Z,9.87
2017-09-24T15:03:49.187Z,9.80
2017-09-24T15:06:17.515Z,9.57
2017-09-24T15:08:45.810Z,11.13
2017-09-24T15:11:14.155Z,10.37
2017-09-24T15:13:42.600Z,9.80
2017-09-24T15:16:12.008Z,16.67
2017-09-24T15:18:40.342Z,16.93
2017-09-24T15:21:09.444Z,14.87
2017-09-24T15:23:37.780Z,15.20
2017-09-24T15:26:06.085Z,11.90
2017-09-24T15:28:34.432Z,13.50
2017-09-24T15:31:02.738Z,15.57
2017-09-24T15:33:31.073Z,21.03
2017-09-24T15:35:59.373Z,10.80
2017-09-24T15:38:27.694Z,10.37
2017-09-24T15:40:56.947Z,13.50
2017-09-24T15:43:25.368Z,12.47
2017-09-24T15:45:53.678Z,14.47
2017-09-24T15:48:21.983Z,13.53
2017-09-24T15:50:50.332Z,12.03
2017-09-24T15:53:19.391Z,14.00
2017-09-24T15:55:47.748Z,12.53
2017-09-24T15:58:16.081Z,11.60
2017-09-24T16:00:44.607Z,14.67
2017-09-24T16:03:12.913Z,13.30
2017-09-24T16:05:42.785Z,13.47
2017-09-24T16:08:11.926Z,13.60
2017-09-24T16:10:40.258Z,13.87
2017-09-24T16:13:08.605Z,13.73
2017-09-24T16:15:36.903Z,15.07
2017-09-24T16:18:05.231Z,12.70
2017-09-24T16:20:33.522Z,14.40
2017-09-24T16:23:02.608Z,12.93
2017-09-24T16:25:30.999Z,13.70
2017-09-24T16:27:59.347Z,13.80
2017-09-24T16:30:27.875Z,14.10
2017-09-24T16:32:56.202Z,12.17
2017-09-24T16:35:25.307Z,14.00
2017-09-24T16:37:54.735Z,15.57
2017-09-24T16:40:23.064Z,14.40
2017-09-24T16:42:52.165Z,14.83
2017-09-24T16:45:20.502Z,15.03
2017-09-24T16:47:48.822Z,16.80
2017-09-24T16:50:17.155Z,16.80
2017-09-24T16:52:45.479Z,16.83
2017-09-24T16:55:14.602Z,19.57
2017-09-24T16:57:43.662Z,15.97
2017-09-24T17:00:12.005Z,17.80
2017-09-24T17:02:40.311Z,16.50
2017-09-24T17:05:09.427Z,18.20
2017-09-24T17:07:38.518Z,19.53
2017-09-24T17:10:07.793Z,17.63
2017-09-24T17:12:36.094Z,21.47
2017-09-24T17:15:04.395Z,21.17
2017-09-24T17:17:32.742Z,21.90
2017-09-24T17:20:01.148Z,22.90
2017-09-24T17:22:31.066Z,25.53
2017-09-24T17:25:00.123Z,26.03
2017-09-24T17:27:29.247Z,25.50
2017-09-24T17:29:57.587Z,22.37
2017-09-24T17:32:25.931Z,24.60
2017-09-24T17:34:54.257Z,24.67
2017-09-24T17:37:22.586Z,26.23
2017-09-24T17:39:50.899Z,28.00
2017-09-24T17:42:19.237Z,31.33
2017-09-24T17:44:47.521Z,37.70
2017-09-24T17:47:15.867Z,35.73
2017-09-24T17:49:44.168Z,32.33
2017-09-24T17:52:12.932Z,33.87
2017-09-24T17:54:41.994Z,33.90
2017-09-24T17:57:10.301Z,31.70
2017-09-24T17:59:39.386Z,32.77
2017-09-24T18:02:07.717Z,32.53
2017-09-24T18:04:36.075Z,34.17
2017-09-24T18:07:04.394Z,33.03
2017-09-24T18:09:32.730Z,36.33
2017-09-24T18:12:01.019Z,34.20
2017-09-24T18:14:29.354Z,31.97
2017-09-24T18:16:57.685Z,34.47
2017-09-24T18:19:26.033Z,34.60
2017-09-24T18:21:54.352Z,35.87
2017-09-24T18:24:22.691Z,40.43
2017-09-24T18:26:51.004Z,36.07
2017-09-24T18:29:19.716Z,38.33
2017-09-24T18:31:48.061Z,35.03
2017-09-24T18:34:16.362Z,37.00
2017-09-24T18:36:45.470Z,36.13
2017-09-24T18:39:13.817Z,35.27
2017-09-24T18:41:42.169Z,41.70
2017-09-24T18:44:10.481Z,39.47
2017-09-24T18:46:38.818Z,39.33
2017-09-24T18:49:07.130Z,39.47
2017-09-24T18:51:35.484Z,37.30
2017-09-24T18:54:03.789Z,40.60
2017-09-24T18:56:32.099Z,45.60
2017-09-24T18:59:00.450Z,41.57
2017-09-24T19:01:29.675Z,43.57
2017-09-24T19:03:57.990Z,42.93
2017-09-24T19:06:26.304Z,43.27
2017-09-24T19:08:55.398Z,42.20
2017-09-24T19:11:24.485Z,39.70
2017-09-24T19:13:52.810Z,39.40
2017-09-24T19:16:21.172Z,44.77
2017-09-24T19:18:49.523Z,46.37
2017-09-24T19:21:17.880Z,46.47
2017-09-24T19:23:46.205Z,47.57
2017-09-24T19:26:15.270Z,44.50
2017-09-24T19:28:44.419Z,48.67
2017-09-24T19:31:12.731Z,46.80
2017-09-24T19:33:41.087Z,46.37
2017-09-24T19:36:09.423Z,51.93
2017-09-24T19:38:38.020Z,44.80
2017-09-24T19:41:06.333Z,46.93
2017-09-24T19:43:34.657Z,44.67
2017-09-24T19:46:03.004Z,53.67
2017-09-24T19:48:32.113Z,48.77
2017-09-24T19:51:01.205Z,43.73
2017-09-24T19:53:30.289Z,52.10
2017-09-24T19:56:00.103Z,50.80
2017-09-24T19:58:28.415Z,48.50
2017-09-24T20:00:56.778Z,46.50
2017-09-24T20:03:25.861Z,45.73
2017-09-24T20:05:54.173Z,50.17
2017-09-24T20:08:22.499Z,45.40
2017-09-24T20:10:50.846Z,49.70
2017-09-24T20:13:19.125Z,44.73
2017-09-24T20:15:47.447Z,45.10
2017-09-24T20:18:16.535Z,45.63
2017-09-24T20:20:45.015Z,48.53
2017-09-24T20:23:13.319Z,47.17
2017-09-24T20:25:41.627Z,45.87
2017-09-24T20:28:09.963Z,48.10
2017-09-24T20:30:39.029Z,47.70
2017-09-24T20:33:07.371Z,48.90
2017-09-24T20:35:35.663Z,48.43
2017-09-24T20:38:04.000Z,45.63
2017-09-24T20:40:32.306Z,46.67
2017-09-24T20:43:00.644Z,49.13
2017-09-24T20:45:29.715Z,53.70
2017-09-24T20:47:58.191Z,55.73
2017-09-24T20:50:27.292Z,47.77
2017-09-24T20:52:55.625Z,47.57
2017-09-24T20:55:23.982Z,47.97
2017-09-24T20:57:52.295Z,48.80
2017-09-24T21:00:20.643Z,46.40
2017-09-24T21:02:48.945Z,50.17
2017-09-24T21:05:17.268Z,52.80
2017-09-24T21:07:46.346Z,48.60
2017-09-24T21:10:15.546Z,50.53
2017-09-24T21:12:44.618Z,52.43
2017-09-24T21:15:12.953Z,48.90
2017-09-24T21:17:41.279Z,50.30
2017-09-24T21:20:09.602Z,48.97
2017-09-24T21:22:37.947Z,48.43
2017-09-24T21:25:07.021Z,49.53
2017-09-24T21:27:35.350Z,56.73
2017-09-24T21:30:03.669Z,52.57
2017-09-24T21:32:32.004Z,50.80
2017-09-24T21:35:01.052Z,45.67
2017-09-24T21:37:30.182Z,48.33
2017-09-24T21:39:58.511Z,45.27
2017-09-24T21:42:26.852Z,50.27
2017-09-24T21:44:55.166Z,54.13
2017-09-24T21:47:23.613Z,48.57
2017-09-24T21:49:51.932Z,57.57
2017-09-24T21:52:20.249Z,54.80
2017-09-24T21:54:48.561Z,52.10
2017-09-24T21:57:16.866Z,53.47
2017-09-24T21:59:45.179Z,47.80
2017-09-24T22:02:13.494Z,49.47
2017-09-24T22:04:41.822Z,58.77
2017-09-24T22:07:10.896Z,55.03
2017-09-24T22:09:39.224Z,55.47
2017-09-24T22:12:07.541Z,56.23
2017-09-24T22:14:35.872Z,56.00
2017-09-24T22:17:04.187Z,53.43
2017-09-24T22:19:32.512Z,53.70
2017-09-24T22:22:00.853Z,48.97
2017-09-24T22:24:29.951Z,50.00
2017-09-24T22:26:59.050Z,55.60
2017-09-24T22:29:28.142Z,50.73
2017-09-24T22:31:57.239Z,47.20
2017-09-24T22:34:26.326Z,46.73
2017-09-24T22:36:54.642Z,52.90
2017-09-24T22:39:22.950Z,44.30
2017-09-24T22:41:51.279Z,48.97
2017-09-24T22:44:19.574Z,42.13
2017-09-24T22:46:48.136Z,42.70
2017-09-24T22:49:16.459Z,47.03
2017-09-24T22:51:44.778Z,47.60
2017-09-24T22:54:13.138Z,45.87
2017-09-24T22:56:41.673Z,43.00
2017-09-24T22:59:10.024Z,56.30
2017-09-24T23:01:39.091Z,48.70
2017-09-24T23:04:07.426Z,43.67
2017-09-24T23:06:35.733Z,46.33
2017-09-24T23:09:04.050Z,43.77
2017-09-24T23:11:32.406Z,48.77
2017-09-24T23:14:00.716Z,45.60
2017-09-24T23:16:29.797Z,49.73
2017-09-24T23:18:58.866Z,48.93
2017-09-24T23:21:27.191Z,44.67
2017-09-24T23:23:56.243Z,49.73
2017-09-24T23:26:24.683Z,52.03
2017-09-24T23:28:52.984Z,50.33
2017-09-24T23:31:22.082Z,48.57
2017-09-24T23:33:50.401Z,52.63
2017-09-24T23:36:18.720Z,44.20
2017-09-24T23:38:47.054Z,47.23
2017-09-24T23:41:16.107Z,54.13
2017-09-24T23:43:44.453Z,52.10
2017-09-24T23:46:12.771Z,54.90
2017-09-24T23:48:41.108Z,49.20
2017-09-24T23:51:09.418Z,54.47
2017-09-24T23:53:38.128Z,51.07
2017-09-24T23:56:06.574Z,51.70
2017-09-24T23:58:34.882Z,50.30
